KRSTKCKC

Guest
Details From KRST - Rochester Intl
To KCKC - GRAND MARAIS COOK CO
Flight Number -
Tags generated
Created
Modified
Stats Distance 291 nm / 539 km
Max Altitude 28,700 ft / 8,748 m
Waypoints 4
Social Downloads 0
Likes 0
Share VATSIM

Download

Looking for another format? Having issues loading an existing format? Contact us
Advertisement - Login to hide

Notes

Basic altitude profile: - Ascent Rate: 500ft/min - Ascent Speed: 60kts - Cruise Altitude: 10000ft - Cruise Speed: 150kts - Descent Rate: 500ft/min - Descent Speed: 90kts Options: - Use NATs: yes - Use PACOTS: yes - Use low airways: no - Use high airways: yes

Route

KRST GEP J21 DLH KCKC

ID Type Via Altitude Latitude Longitude Leg Dist Tot Dist Heading (true) Name
O KRST APT - 0 ft / 0 m 43.90786˚ -92.50008˚ - 0 nm - Rochester Intl
GEP VOR - 28,700 ft / 8,748 m 45.14569˚ -93.37319˚ 83 nm 83 nm 334° / 333° GOPHER VORTAC
DLH VOR J21 (AWY-HI) 19,700 ft / 6,005 m 46.80217˚ -92.20286˚ 110 nm 194 nm 26° / 27° DULUTH VORTAC
O KCKC APT - 0 ft / 0 m 47.83834˚ -90.38295˚ 96 nm 290 nm 49° / 51° GRAND MARAIS COOK CO

Altitude Profile

Advertisement - Login to hide

Weather


0- 5 10 15 20 25 30 35+ Temperature / ° C

Clouds and Precipitation
Forecast for 2017-12-15 12:00 UTC. Updated an hour ago

Ground ~20,000 ft ~40,000 ft Winds

KRST

Details ICAO KRST (RST)
Name Rochester Intl
Region United States
Timezone America/Chicago (UTC-6.0)
Stats Elevation 1,317 ft / 401 m (AMSL)
Location 43.907862° -92.500085°
Runways 2
Magnetic Variation 0.295° W

METAR

KRST 151243Z 23006KT 1 3/4SM -SN BR BKN007 BKN011 OVC026 M06/M06 A2989 RMK AO2 SNB10 P0000 T10561061

Decode

TAF

TAF AMD KRST 151227Z 1512/1612 27008KT P6SM -SN SCT015 BKN020 TEMPO 1512/1514 5SM -SN BKN013 FM151900 28007KT P6SM -SN SCT020 BKN035 FM152200 21005KT P6SM BKN015 FM160200 18006KT P6SM BKN040

Decode

Departure Runways

ID Width Length Bearing (true) Bearing (mag) Surface Threshold Offset Overrun Length
13 151 ft / 46 m 9,025 ft / 2,751 m 132.22° 132.52° Concrete 0 ft / 0 m 0 ft / 0 m
2 151 ft / 46 m 7,303 ft / 2,226 m 26.39° 26.69° Concrete 0 ft / 0 m 0 ft / 0 m
20 151 ft / 46 m 7,303 ft / 2,226 m 206.40° 206.70° Concrete 0 ft / 0 m 0 ft / 0 m
31 151 ft / 46 m 9,025 ft / 2,751 m 312.24° 312.54° Concrete 0 ft / 0 m 0 ft / 0 m

KCKC

Details ICAO KCKC (GRM)
Name GRAND MARAIS COOK CO
Region United States
Timezone America/Chicago (UTC-6.0)
Stats Elevation 1,799 ft / 548 m (AMSL)
Location 47.838340° -90.382952°
Runways 1
Magnetic Variation 2.683° W

METAR

KCKC 151235Z AUTO 31003KT 7SM OVC040 M15/M18 A2972 RMK AO2

Decode

TAF

Not found

Destination Runways

ID Width Length Bearing (true) Bearing (mag) Surface Threshold Offset Overrun Length
09 75 ft / 23 m 4,188 ft / 1,277 m 94.70° 97.38° Asphalt 0 ft / 0 m 0 ft / 0 m
27 75 ft / 23 m 4,188 ft / 1,277 m 274.71° 277.39° Asphalt 0 ft / 0 m 0 ft / 0 m

Popular Alternatives